sensor_id;sensor_type;location;lat;lon;timestamp;pressure;altitude;pressure_sealevel;temperature;humidity
12213;BME280;6169;44.158;22.788;2022-08-27T00:04:16;100375.25;;;28.11;67.11
12213;BME280;6169;44.158;22.788;2022-08-27T00:09:21;100334.41;;;27.21;70.54
12213;BME280;6169;44.158;22.788;2022-08-27T00:14:25;100379.84;;;27.46;70.97
12213;BME280;6169;44.158;22.788;2022-08-27T00:19:27;100377.31;;;27.01;73.27
12213;BME280;6169;44.158;22.788;2022-08-27T00:24:31;100375.81;;;26.78;75.69
12213;BME280;6169;44.158;22.788;2022-08-27T00:29:34;100377.75;;;26.46;77.64
12213;BME280;6169;44.158;22.788;2022-08-27T00:34:36;100378.69;;;26.33;79.88
12213;BME280;6169;44.158;22.788;2022-08-27T00:39:40;100381.47;;;26.73;79.10
12213;BME280;6169;44.158;22.788;2022-08-27T00:44:42;100375.63;;;26.43;81.03
12213;BME280;6169;44.158;22.788;2022-08-27T00:49:48;100366.47;;;26.34;82.97
12213;BME280;6169;44.158;22.788;2022-08-27T00:55:02;100369.25;;;26.34;81.91
12213;BME280;6169;44.158;22.788;2022-08-27T01:00:09;100372.13;;;26.51;81.28
12213;BME280;6169;44.158;22.788;2022-08-27T01:05:16;100389.59;;;27.18;77.62
12213;BME280;6169;44.158;22.788;2022-08-27T01:10:24;100407.53;;;26.49;81.49
12213;BME280;6169;44.158;22.788;2022-08-27T01:15:28;100397.50;;;27.02;77.99
12213;BME280;6169;44.158;22.788;2022-08-27T01:20:37;100391.22;;;26.39;82.84
12213;BME280;6169;44.158;22.788;2022-08-27T01:25:44;100403.97;;;27.37;76.22
12213;BME280;6169;44.158;22.788;2022-08-27T01:30:47;100395.25;;;27.04;76.55
12213;BME280;6169;44.158;22.788;2022-08-27T01:35:50;100410.63;;;26.79;78.86
12213;BME280;6169;44.158;22.788;2022-08-27T01:40:54;100269.69;;;25.04;83.28
12213;BME280;6169;44.158;22.788;2022-08-27T01:45:56;100408.00;;;26.43;80.08
12213;BME280;6169;44.158;22.788;2022-08-27T01:50:59;100405.94;;;26.26;82.05
12213;BME280;6169;44.158;22.788;2022-08-27T01:56:02;100401.59;;;26.33;80.25
12213;BME280;6169;44.158;22.788;2022-08-27T02:01:08;100406.03;;;26.74;78.10
12213;BME280;6169;44.158;22.788;2022-08-27T02:06:11;100404.09;;;26.75;79.66
12213;BME280;6169;44.158;22.788;2022-08-27T02:11:15;100408.94;;;26.69;78.18
12213;BME280;6169;44.158;22.788;2022-08-27T02:16:17;100404.97;;;26.84;78.88
12213;BME280;6169;44.158;22.788;2022-08-27T02:21:19;100406.38;;;26.73;78.70
12213;BME280;6169;44.158;22.788;2022-08-27T02:26:24;100403.13;;;26.79;78.84
12213;BME280;6169;44.158;22.788;2022-08-27T02:31:27;100397.56;;;26.39;80.90
12213;BME280;6169;44.158;22.788;2022-08-27T02:36:29;100410.66;;;26.25;81.22
12213;BME280;6169;44.158;22.788;2022-08-27T02:41:33;100413.47;;;26.34;80.53
12213;BME280;6169;44.158;22.788;2022-08-27T02:46:36;100412.06;;;25.91;81.89
12213;BME280;6169;44.158;22.788;2022-08-27T02:51:38;100423.19;;;26.00;82.69
12213;BME280;6169;44.158;22.788;2022-08-27T02:56:42;100414.97;;;26.40;79.63
12213;BME280;6169;44.158;22.788;2022-08-27T03:01:45;100421.38;;;26.27;79.82
12213;BME280;6169;44.158;22.788;2022-08-27T03:06:47;100423.09;;;26.36;78.81
12213;BME280;6169;44.158;22.788;2022-08-27T03:11:51;100425.88;;;25.91;81.45
12213;BME280;6169;44.158;22.788;2022-08-27T03:16:54;100425.91;;;26.45;77.88
12213;BME280;6169;44.158;22.788;2022-08-27T03:22:17;100432.72;;;26.16;79.17
12213;BME280;6169;44.158;22.788;2022-08-27T03:27:20;100432.72;;;25.94;79.40
12213;BME280;6169;44.158;22.788;2022-08-27T03:32:23;100441.84;;;26.17;78.59
12213;BME280;6169;44.158;22.788;2022-08-27T03:37:25;100448.06;;;26.00;78.95
12213;BME280;6169;44.158;22.788;2022-08-27T03:42:29;100447.38;;;26.17;77.66
12213;BME280;6169;44.158;22.788;2022-08-27T03:47:31;100442.28;;;25.88;78.12
12213;BME280;6169;44.158;22.788;2022-08-27T03:52:34;100442.41;;;25.19;82.47
12213;BME280;6169;44.158;22.788;2022-08-27T03:57:38;100460.34;;;24.61;86.19
12213;BME280;6169;44.158;22.788;2022-08-27T04:02:41;100457.78;;;25.47;79.82
12213;BME280;6169;44.158;22.788;2022-08-27T04:07:44;100458.66;;;24.46;84.75
12213;BME280;6169;44.158;22.788;2022-08-27T04:12:47;100345.28;;;23.87;84.21
12213;BME280;6169;44.158;22.788;2022-08-27T04:17:50;100470.81;;;25.19;81.43
12213;BME280;6169;44.158;22.788;2022-08-27T04:22:52;100477.53;;;25.13;80.96
12213;BME280;6169;44.158;22.788;2022-08-27T04:27:56;100479.34;;;24.76;83.09
12213;BME280;6169;44.158;22.788;2022-08-27T04:32:59;100477.34;;;25.10;81.38
12213;BME280;6169;44.158;22.788;2022-08-27T04:38:01;100480.09;;;24.96;82.47
12213;BME280;6169;44.158;22.788;2022-08-27T04:43:05;100489.88;;;25.71;78.48
12213;BME280;6169;44.158;22.788;2022-08-27T04:48:07;100500.25;;;25.38;80.39
12213;BME280;6169;44.158;22.788;2022-08-27T04:53:10;100497.72;;;25.91;78.55
12213;BME280;6169;44.158;22.788;2022-08-27T04:58:15;100500.63;;;26.09;78.06
12213;BME280;6169;44.158;22.788;2022-08-27T05:03:19;100493.91;;;26.24;76.50
12213;BME280;6169;44.158;22.788;2022-08-27T05:08:23;100501.06;;;26.02;75.79
12213;BME280;6169;44.158;22.788;2022-08-27T05:13:27;100500.06;;;26.43;72.55
12213;BME280;6169;44.158;22.788;2022-08-27T05:18:30;100467.38;;;26.68;70.60
12213;BME280;6169;44.158;22.788;2022-08-27T05:23:34;100515.06;;;27.04;70.62
12213;BME280;6169;44.158;22.788;2022-08-27T05:28:38;100511.34;;;27.49;69.66
12213;BME280;6169;44.158;22.788;2022-08-27T05:33:49;100518.09;;;27.25;70.87
12213;BME280;6169;44.158;22.788;2022-08-27T05:38:51;100518.34;;;27.55;70.29
12213;BME280;6169;44.158;22.788;2022-08-27T05:43:56;100517.22;;;27.56;70.89
12213;BME280;6169;44.158;22.788;2022-08-27T05:49:01;100521.69;;;28.01;69.93
12213;BME280;6169;44.158;22.788;2022-08-27T05:54:04;100527.41;;;28.30;70.47
12213;BME280;6169;44.158;22.788;2022-08-27T05:59:07;100526.41;;;28.35;71.27
12213;BME280;6169;44.158;22.788;2022-08-27T06:04:28;100530.31;;;28.69;71.27
12213;BME280;6169;44.158;22.788;2022-08-27T06:09:30;100531.00;;;28.57;71.57
12213;BME280;6169;44.158;22.788;2022-08-27T06:14:34;100539.00;;;29.23;68.88
12213;BME280;6169;44.158;22.788;2022-08-27T06:19:38;100542.63;;;29.15;69.15
12213;BME280;6169;44.158;22.788;2022-08-27T06:24:42;100547.66;;;29.21;69.82
12213;BME280;6169;44.158;22.788;2022-08-27T06:29:45;100559.03;;;28.81;72.47
12213;BME280;6169;44.158;22.788;2022-08-27T06:34:49;100543.03;;;29.34;72.03
12213;BME280;6169;44.158;22.788;2022-08-27T06:39:51;100547.50;;;28.27;74.17
12213;BME280;6169;44.158;22.788;2022-08-27T06:44:54;100556.03;;;29.04;66.58
12213;BME280;6169;44.158;22.788;2022-08-27T06:49:58;100549.09;;;29.57;66.57
12213;BME280;6169;44.158;22.788;2022-08-27T06:55:00;100551.22;;;29.60;66.51
12213;BME280;6169;44.158;22.788;2022-08-27T07:00:03;100547.16;;;30.08;63.67
12213;BME280;6169;44.158;22.788;2022-08-27T07:05:08;100546.84;;;29.21;63.85
12213;BME280;6169;44.158;22.788;2022-08-27T07:10:11;100538.66;;;30.47;58.02
12213;BME280;6169;44.158;22.788;2022-08-27T07:15:14;100540.22;;;29.93;56.65
12213;BME280;6169;44.158;22.788;2022-08-27T07:20:18;100542.88;;;30.32;53.97
12213;BME280;6169;44.158;22.788;2022-08-27T07:25:21;100538.25;;;30.15;53.74
12213;BME280;6169;44.158;22.788;2022-08-27T07:30:23;100528.28;;;30.14;52.90
12213;BME280;6169;44.158;22.788;2022-08-27T07:35:27;100546.03;;;30.64;51.21
12213;BME280;6169;44.158;22.788;2022-08-27T07:40:31;100411.81;;;29.79;50.30
12213;BME280;6169;44.158;22.788;2022-08-27T07:45:34;100545.47;;;31.53;47.80
12213;BME280;6169;44.158;22.788;2022-08-27T07:50:37;100540.69;;;30.92;49.46
12213;BME280;6169;44.158;22.788;2022-08-27T07:55:40;100543.78;;;30.57;49.36
12213;BME280;6169;44.158;22.788;2022-08-27T08:00:43;100547.09;;;31.41;46.91
12213;BME280;6169;44.158;22.788;2022-08-27T08:05:47;100546.81;;;32.08;44.75
12213;BME280;6169;44.158;22.788;2022-08-27T08:10:55;100536.66;;;32.15;44.00
12213;BME280;6169;44.158;22.788;2022-08-27T08:15:58;100524.38;;;32.32;44.21
12213;BME280;6169;44.158;22.788;2022-08-27T08:21:04;100537.44;;;31.76;45.25
12213;BME280;6169;44.158;22.788;2022-08-27T08:26:07;100536.53;;;33.12;42.61
12213;BME280;6169;44.158;22.788;2022-08-27T08:31:10;100527.91;;;31.15;46.89
12213;BME280;6169;44.158;22.788;2022-08-27T08:36:15;100540.91;;;31.97;44.87
12213;BME280;6169;44.158;22.788;2022-08-27T08:41:39;100545.31;;;32.38;44.30
12213;BME280;6169;44.158;22.788;2022-08-27T08:46:47;100537.53;;;33.20;41.41
12213;BME280;6169;44.158;22.788;2022-08-27T08:51:54;100545.28;;;33.11;39.77
12213;BME280;6169;44.158;22.788;2022-08-27T08:57:03;100547.94;;;32.91;42.01
12213;BME280;6169;44.158;22.788;2022-08-27T09:02:09;100539.13;;;33.53;41.01
12213;BME280;6169;44.158;22.788;2022-08-27T09:07:29;100541.84;;;33.84;39.83
12213;BME280;6169;44.158;22.788;2022-08-27T09:12:35;100540.34;;;34.06;39.90
12213;BME280;6169;44.158;22.788;2022-08-27T09:17:38;100535.44;;;34.19;39.30
12213;BME280;6169;44.158;22.788;2022-08-27T09:22:48;100537.88;;;35.06;36.52
12213;BME280;6169;44.158;22.788;2022-08-27T09:27:55;100527.66;;;34.71;38.20
12213;BME280;6169;44.158;22.788;2022-08-27T09:33:00;100524.09;;;35.43;36.05
12213;BME280;6169;44.158;22.788;2022-08-27T09:38:05;100503.63;;;35.16;36.36
12213;BME280;6169;44.158;22.788;2022-08-27T09:43:18;100520.13;;;35.47;35.70
12213;BME280;6169;44.158;22.788;2022-08-27T09:48:25;100508.34;;;34.66;36.31
12213;BME280;6169;44.158;22.788;2022-08-27T09:53:32;100510.31;;;34.23;37.57
12213;BME280;6169;44.158;22.788;2022-08-27T09:58:47;100511.03;;;35.28;36.20
12213;BME280;6169;44.158;22.788;2022-08-27T10:04:03;100498.63;;;35.29;36.00
12213;BME280;6169;44.158;22.788;2022-08-27T10:09:09;100499.91;;;34.43;37.15
12213;BME280;6169;44.158;22.788;2022-08-27T10:14:18;100508.66;;;35.83;34.17
12213;BME280;6169;44.158;22.788;2022-08-27T10:19:35;100507.19;;;36.26;33.16
12213;BME280;6169;44.158;22.788;2022-08-27T10:24:51;100507.78;;;35.79;34.35
12213;BME280;6169;44.158;22.788;2022-08-27T10:30:01;100501.59;;;35.66;34.42
12213;BME280;6169;44.158;22.788;2022-08-27T10:35:08;100501.44;;;35.82;33.91
12213;BME280;6169;44.158;22.788;2022-08-27T10:40:21;100508.97;;;37.89;31.48
12213;BME280;6169;44.158;22.788;2022-08-27T10:45:36;100502.69;;;36.93;31.90
12213;BME280;6169;44.158;22.788;2022-08-27T10:50:46;100504.03;;;37.10;31.14
12213;BME280;6169;44.158;22.788;2022-08-27T10:55:54;100503.47;;;37.41;29.95
12213;BME280;6169;44.158;22.788;2022-08-27T11:01:02;100497.63;;;36.68;31.57
12213;BME280;6169;44.158;22.788;2022-08-27T11:06:13;100495.34;;;37.95;28.38
12213;BME280;6169;44.158;22.788;2022-08-27T11:11:26;100488.59;;;38.18;27.85
12213;BME280;6169;44.158;22.788;2022-08-27T11:16:36;100493.88;;;36.98;25.40
12213;BME280;6169;44.158;22.788;2022-08-27T11:21:45;100471.88;;;36.63;26.99
12213;BME280;6169;44.158;22.788;2022-08-27T11:26:53;100484.31;;;37.58;24.76
12213;BME280;6169;44.158;22.788;2022-08-27T11:32:03;100481.50;;;37.61;23.33
12213;BME280;6169;44.158;22.788;2022-08-27T11:37:37;100477.03;;;38.44;20.86
12213;BME280;6169;44.158;22.788;2022-08-27T11:42:48;100466.16;;;38.50;26.04
12213;BME280;6169;44.158;22.788;2022-08-27T11:47:54;100465.75;;;38.48;26.53
12213;BME280;6169;44.158;22.788;2022-08-27T11:52:59;100391.66;;;37.20;23.50
12213;BME280;6169;44.158;22.788;2022-08-27T11:58:09;100455.84;;;37.74;22.04
12213;BME280;6169;44.158;22.788;2022-08-27T12:03:23;100450.38;;;38.20;22.29
12213;BME280;6169;44.158;22.788;2022-08-27T12:08:29;100455.97;;;39.78;21.57
12213;BME280;6169;44.158;22.788;2022-08-27T12:13:39;100447.03;;;37.89;24.32
12213;BME280;6169;44.158;22.788;2022-08-27T12:18:51;100440.41;;;38.69;22.97
12213;BME280;6169;44.158;22.788;2022-08-27T12:29:34;100436.41;;;38.77;23.42
12213;BME280;6169;44.158;22.788;2022-08-27T12:34:42;100421.28;;;39.74;22.21
12213;BME280;6169;44.158;22.788;2022-08-27T12:39:46;100432.59;;;37.91;23.58
12213;BME280;6169;44.158;22.788;2022-08-27T12:44:55;100427.31;;;39.83;22.98
12213;BME280;6169;44.158;22.788;2022-08-27T12:49:58;100421.47;;;40.74;22.38
12213;BME280;6169;44.158;22.788;2022-08-27T12:55:10;100345.38;;;38.20;24.18
12213;BME280;6169;44.158;22.788;2022-08-27T13:00:18;100410.50;;;40.31;22.14
12213;BME280;6169;44.158;22.788;2022-08-27T13:05:21;100408.03;;;40.37;22.22
12213;BME280;6169;44.158;22.788;2022-08-27T13:10:27;100402.34;;;39.71;22.25
12213;BME280;6169;44.158;22.788;2022-08-27T13:15:32;100283.72;;;39.04;21.79
12213;BME280;6169;44.158;22.788;2022-08-27T13:20:36;100274.41;;;39.14;21.89
12213;BME280;6169;44.158;22.788;2022-08-27T13:25:39;100400.56;;;40.65;21.21
12213;BME280;6169;44.158;22.788;2022-08-27T13:30:45;100406.63;;;40.60;20.09
12213;BME280;6169;44.158;22.788;2022-08-27T13:35:48;100400.19;;;40.59;22.74
12213;BME280;6169;44.158;22.788;2022-08-27T13:40:55;100394.81;;;40.23;22.82
12213;BME280;6169;44.158;22.788;2022-08-27T13:46:02;100395.28;;;39.05;23.22
12213;BME280;6169;44.158;22.788;2022-08-27T13:51:06;100394.13;;;40.64;22.56
12213;BME280;6169;44.158;22.788;2022-08-27T13:56:09;100387.94;;;40.28;21.94
12213;BME280;6169;44.158;22.788;2022-08-27T14:01:15;100400.94;;;41.50;20.53
12213;BME280;6169;44.158;22.788;2022-08-27T14:06:27;100397.09;;;40.43;22.79
12213;BME280;6169;44.158;22.788;2022-08-27T14:11:32;100391.22;;;40.12;23.19
12213;BME280;6169;44.158;22.788;2022-08-27T14:16:35;100396.16;;;40.64;22.88
12213;BME280;6169;44.158;22.788;2022-08-27T14:21:41;100403.16;;;40.90;22.81
12213;BME280;6169;44.158;22.788;2022-08-27T14:26:48;100395.72;;;40.62;21.86
12213;BME280;6169;44.158;22.788;2022-08-27T14:31:52;100395.13;;;40.36;21.45
12213;BME280;6169;44.158;22.788;2022-08-27T14:36:54;100394.06;;;40.16;22.24
12213;BME280;6169;44.158;22.788;2022-08-27T14:41:56;100400.22;;;39.96;22.42
12213;BME280;6169;44.158;22.788;2022-08-27T14:47:00;100395.66;;;40.72;22.37
12213;BME280;6169;44.158;22.788;2022-08-27T14:52:04;100401.91;;;39.83;22.77
12213;BME280;6169;44.158;22.788;2022-08-27T14:57:07;100405.78;;;40.07;21.92
12213;BME280;6169;44.158;22.788;2022-08-27T15:02:12;100400.69;;;39.84;22.74
12213;BME280;6169;44.158;22.788;2022-08-27T15:07:15;100376.91;;;40.89;21.95
12213;BME280;6169;44.158;22.788;2022-08-27T15:12:19;100367.31;;;39.61;23.87
12213;BME280;6169;44.158;22.788;2022-08-27T15:17:23;100401.94;;;39.79;23.58
12213;BME280;6169;44.158;22.788;2022-08-27T15:22:31;100400.31;;;39.67;23.34
12213;BME280;6169;44.158;22.788;2022-08-27T15:27:34;100391.66;;;39.05;24.85
12213;BME280;6169;44.158;22.788;2022-08-27T15:32:41;100389.22;;;39.10;24.79
12213;BME280;6169;44.158;22.788;2022-08-27T15:37:44;100395.50;;;39.68;24.12
12213;BME280;6169;44.158;22.788;2022-08-27T15:42:49;100387.56;;;39.38;24.65
12213;BME280;6169;44.158;22.788;2022-08-27T15:47:55;100392.22;;;39.87;23.78
12213;BME280;6169;44.158;22.788;2022-08-27T15:53:00;100380.47;;;39.93;23.98
12213;BME280;6169;44.158;22.788;2022-08-27T15:58:03;100382.72;;;39.45;24.37
12213;BME280;6169;44.158;22.788;2022-08-27T16:03:10;100386.41;;;40.09;24.32
12213;BME280;6169;44.158;22.788;2022-08-27T16:08:14;100356.56;;;39.31;24.35
12213;BME280;6169;44.158;22.788;2022-08-27T16:13:16;100390.38;;;39.41;26.37
12213;BME280;6169;44.158;22.788;2022-08-27T16:18:24;100398.09;;;39.05;24.93
12213;BME280;6169;44.158;22.788;2022-08-27T16:23:28;100397.19;;;39.48;25.44
12213;BME280;6169;44.158;22.788;2022-08-27T16:28:31;100401.34;;;38.96;26.23
12213;BME280;6169;44.158;22.788;2022-08-27T16:33:35;100406.09;;;38.06;27.51
12213;BME280;6169;44.158;22.788;2022-08-27T16:38:38;100412.41;;;37.75;27.94
12213;BME280;6169;44.158;22.788;2022-08-27T16:43:40;100416.59;;;38.17;28.58
12213;BME280;6169;44.158;22.788;2022-08-27T16:48:44;100429.47;;;38.21;28.82
12213;BME280;6169;44.158;22.788;2022-08-27T16:54:04;100436.53;;;37.72;29.80
12213;BME280;6169;44.158;22.788;2022-08-27T16:59:07;100436.31;;;37.33;30.92
12213;BME280;6169;44.158;22.788;2022-08-27T17:04:14;100442.50;;;36.97;32.34
12213;BME280;6169;44.158;22.788;2022-08-27T17:09:17;100434.13;;;36.56;33.51
12213;BME280;6169;44.158;22.788;2022-08-27T17:14:19;100385.50;;;36.08;33.66
12213;BME280;6169;44.158;22.788;2022-08-27T17:19:23;100427.44;;;35.63;34.71
12213;BME280;6169;44.158;22.788;2022-08-27T17:24:26;100436.41;;;35.76;34.18
12213;BME280;6169;44.158;22.788;2022-08-27T17:29:28;100443.91;;;35.65;34.55
12213;BME280;6169;44.158;22.788;2022-08-27T17:34:32;100437.97;;;34.94;36.04
12213;BME280;6169;44.158;22.788;2022-08-27T17:39:34;100447.63;;;35.19;35.26
12213;BME280;6169;44.158;22.788;2022-08-27T17:44:37;100444.41;;;34.71;36.59
12213;BME280;6169;44.158;22.788;2022-08-27T17:49:40;100390.00;;;34.26;37.42
12213;BME280;6169;44.158;22.788;2022-08-27T17:54:45;100450.25;;;34.86;36.79
12213;BME280;6169;44.158;22.788;2022-08-27T17:59:48;100448.81;;;34.49;37.18
12213;BME280;6169;44.158;22.788;2022-08-27T18:04:53;100456.38;;;34.26;38.23
12213;BME280;6169;44.158;22.788;2022-08-27T18:09:55;100465.75;;;34.14;38.02
12213;BME280;6169;44.158;22.788;2022-08-27T18:15:03;100372.88;;;33.31;38.36
12213;BME280;6169;44.158;22.788;2022-08-27T18:20:09;100474.84;;;33.72;39.04
12213;BME280;6169;44.158;22.788;2022-08-27T18:25:12;100489.72;;;33.57;39.39
12213;BME280;6169;44.158;22.788;2022-08-27T18:30:15;100465.22;;;33.18;39.45
12213;BME280;6169;44.158;22.788;2022-08-27T18:35:20;100493.06;;;33.31;39.75
12213;BME280;6169;44.158;22.788;2022-08-27T18:40:25;100489.56;;;33.02;39.87
12213;BME280;6169;44.158;22.788;2022-08-27T18:45:28;100503.91;;;33.16;40.02
12213;BME280;6169;44.158;22.788;2022-08-27T18:50:34;100511.81;;;32.82;40.50
12213;BME280;6169;44.158;22.788;2022-08-27T18:55:36;100507.53;;;31.88;42.79
12213;BME280;6169;44.158;22.788;2022-08-27T19:00:40;100517.09;;;32.28;43.42
12213;BME280;6169;44.158;22.788;2022-08-27T19:05:45;100531.13;;;33.03;42.75
12213;BME280;6169;44.158;22.788;2022-08-27T19:10:47;100534.88;;;32.95;42.98
12213;BME280;6169;44.158;22.788;2022-08-27T19:15:57;100542.72;;;32.46;43.17
12213;BME280;6169;44.158;22.788;2022-08-27T19:21:03;100552.03;;;32.37;43.49
12213;BME280;6169;44.158;22.788;2022-08-27T19:26:12;100544.69;;;32.17;44.49
12213;BME280;6169;44.158;22.788;2022-08-27T19:31:15;100535.31;;;31.97;44.73
12213;BME280;6169;44.158;22.788;2022-08-27T19:36:20;100546.72;;;31.92;45.52
12213;BME280;6169;44.158;22.788;2022-08-27T19:41:22;100544.75;;;31.92;45.80
12213;BME280;6169;44.158;22.788;2022-08-27T19:46:25;100552.16;;;31.88;45.30
12213;BME280;6169;44.158;22.788;2022-08-27T19:51:30;100551.84;;;31.78;46.38
12213;BME280;6169;44.158;22.788;2022-08-27T19:56:32;100558.97;;;32.15;45.63
12213;BME280;6169;44.158;22.788;2022-08-27T20:01:35;100550.47;;;31.71;46.36
12213;BME280;6169;44.158;22.788;2022-08-27T20:06:38;100559.50;;;31.32;47.98
12213;BME280;6169;44.158;22.788;2022-08-27T20:11:41;100559.06;;;31.42;48.26
12213;BME280;6169;44.158;22.788;2022-08-27T20:16:45;100563.72;;;31.38;48.89
12213;BME280;6169;44.158;22.788;2022-08-27T20:21:49;100567.31;;;31.38;48.79
12213;BME280;6169;44.158;22.788;2022-08-27T20:26:52;100574.88;;;30.59;52.41
12213;BME280;6169;44.158;22.788;2022-08-27T20:31:56;100581.19;;;31.14;50.43
12213;BME280;6169;44.158;22.788;2022-08-27T20:37:01;100427.34;;;29.30;53.52
12213;BME280;6169;44.158;22.788;2022-08-27T20:42:05;100578.13;;;30.94;51.36
12213;BME280;6169;44.158;22.788;2022-08-27T20:47:08;100572.06;;;30.80;51.95
12213;BME280;6169;44.158;22.788;2022-08-27T20:52:13;100542.66;;;30.37;53.00
12213;BME280;6169;44.158;22.788;2022-08-27T20:57:15;100568.09;;;30.48;52.51
12213;BME280;6169;44.158;22.788;2022-08-27T21:02:20;100572.66;;;30.10;53.07
12213;BME280;6169;44.158;22.788;2022-08-27T21:07:24;100580.91;;;29.98;51.48
12213;BME280;6169;44.158;22.788;2022-08-27T21:12:28;100572.41;;;30.57;50.59
12213;BME280;6169;44.158;22.788;2022-08-27T21:17:30;100556.28;;;30.51;49.37
12213;BME280;6169;44.158;22.788;2022-08-27T21:22:34;100556.00;;;30.65;49.59
12213;BME280;6169;44.158;22.788;2022-08-27T21:27:37;100570.06;;;30.05;51.92
12213;BME280;6169;44.158;22.788;2022-08-27T21:32:39;100575.97;;;30.04;52.63
12213;BME280;6169;44.158;22.788;2022-08-27T21:37:43;100571.63;;;29.94;53.01
12213;BME280;6169;44.158;22.788;2022-08-27T21:42:47;100591.97;;;29.86;53.66
12213;BME280;6169;44.158;22.788;2022-08-27T21:47:50;100449.41;;;28.49;54.37
12213;BME280;6169;44.158;22.788;2022-08-27T21:52:55;100592.16;;;29.04;56.89
12213;BME280;6169;44.158;22.788;2022-08-27T21:57:57;100587.44;;;28.78;59.57
12213;BME280;6169;44.158;22.788;2022-08-27T22:02:59;100597.50;;;28.92;59.16
12213;BME280;6169;44.158;22.788;2022-08-27T22:08:03;100587.44;;;28.26;62.12
12213;BME280;6169;44.158;22.788;2022-08-27T22:13:06;100592.81;;;28.05;63.57
12213;BME280;6169;44.158;22.788;2022-08-27T22:18:09;100531.00;;;27.96;62.86
12213;BME280;6169;44.158;22.788;2022-08-27T22:23:13;100596.22;;;27.93;63.69
12213;BME280;6169;44.158;22.788;2022-08-27T22:28:16;100596.91;;;28.77;60.53
12213;BME280;6169;44.158;22.788;2022-08-27T22:33:18;100594.63;;;28.27;61.84
12213;BME280;6169;44.158;22.788;2022-08-27T22:38:22;100592.69;;;28.54;61.21
12213;BME280;6169;44.158;22.788;2022-08-27T22:43:24;100582.34;;;27.85;63.42
12213;BME280;6169;44.158;22.788;2022-08-27T22:48:26;100597.88;;;28.21;62.91
12213;BME280;6169;44.158;22.788;2022-08-27T22:53:30;100601.44;;;27.46;66.72
12213;BME280;6169;44.158;22.788;2022-08-27T22:58:33;100598.06;;;27.67;66.09
12213;BME280;6169;44.158;22.788;2022-08-27T23:03:35;100594.13;;;28.25;63.15
12213;BME280;6169;44.158;22.788;2022-08-27T23:08:39;100604.56;;;28.28;63.32
12213;BME280;6169;44.158;22.788;2022-08-27T23:13:41;100600.84;;;28.59;62.41
12213;BME280;6169;44.158;22.788;2022-08-27T23:18:44;100599.53;;;28.39;62.82
12213;BME280;6169;44.158;22.788;2022-08-27T23:23:49;100478.31;;;27.87;61.99
12213;BME280;6169;44.158;22.788;2022-08-27T23:28:51;100602.00;;;28.58;62.36
12213;BME280;6169;44.158;22.788;2022-08-27T23:33:54;100606.34;;;28.07;64.19
12213;BME280;6169;44.158;22.788;2022-08-27T23:38:58;100607.50;;;28.23;63.03
12213;BME280;6169;44.158;22.788;2022-08-27T23:44:01;100605.38;;;28.20;63.58
12213;BME280;6169;44.158;22.788;2022-08-27T23:49:03;100606.03;;;28.08;63.20
12213;BME280;6169;44.158;22.788;2022-08-27T23:54:07;100616.16;;;28.22;63.07
12213;BME280;6169;44.158;22.788;2022-08-27T23:59:09;100592.31;;;28.29;62.78
